createdAt,value
2023-01-04T00:02:17.298Z,15.30
2023-01-04T00:05:02.938Z,13.55
2023-01-04T00:07:48.244Z,17.10
2023-01-04T00:10:33.840Z,9.40
2023-01-04T00:13:19.454Z,13.23
2023-01-04T00:16:08.648Z,16.73
2023-01-04T00:18:54.988Z,10.18
2023-01-04T00:21:40.232Z,11.82
2023-01-04T00:24:25.753Z,9.35
2023-01-04T00:27:11.367Z,7.43
2023-01-04T00:29:56.911Z,11.40
2023-01-04T00:32:42.326Z,8.35
2023-01-04T00:35:45.115Z,12.35
2023-01-04T00:38:33.716Z,7.40
2023-01-04T00:41:49.136Z,7.97
2023-01-04T00:44:24.302Z,10.07
2023-01-04T00:47:10.717Z,5.10
2023-01-04T00:49:58.600Z,7.72
2023-01-04T00:52:44.038Z,10.95
2023-01-04T00:55:30.954Z,6.72
2023-01-04T00:58:16.320Z,13.88
2023-01-04T01:01:06.654Z,8.18
2023-01-04T01:03:54.847Z,8.73
2023-01-04T01:06:40.653Z,9.80
2023-01-04T01:09:29.215Z,8.32
2023-01-04T01:12:14.404Z,5.72
2023-01-04T01:15:00.779Z,12.05
2023-01-04T01:17:46.309Z,9.68
2023-01-04T01:20:31.903Z,9.52
2023-01-04T01:23:17.573Z,7.07
2023-01-04T01:26:04.666Z,8.18
2023-01-04T01:28:51.124Z,11.75
2023-01-04T01:31:43.740Z,10.40
2023-01-04T01:34:34.584Z,9.70
2023-01-04T01:37:20.040Z,14.65
2023-01-04T01:40:06.024Z,15.68
2023-01-04T01:42:52.683Z,10.18
2023-01-04T01:45:39.613Z,11.10
2023-01-04T01:48:29.505Z,8.27
2023-01-04T01:51:16.738Z,16.30
2023-01-04T01:54:07.903Z,15.10
2023-01-04T01:56:59.862Z,15.07
2023-01-04T01:59:51.209Z,7.47
2023-01-04T02:02:36.905Z,9.07
2023-01-04T02:05:23.467Z,10.80
2023-01-04T02:08:10.511Z,6.82
2023-01-04T02:10:57.659Z,12.80
2023-01-04T02:14:02.772Z,9.60
2023-01-04T02:17:18.133Z,16.80
2023-01-04T02:20:24.839Z,14.15
2023-01-04T02:23:43.658Z,11.98
2023-01-04T02:26:49.905Z,16.48
2023-01-04T02:30:10.236Z,13.57
2023-01-04T02:32:55.693Z,12.13
2023-01-04T02:36:14.403Z,6.68
2023-01-04T02:39:10.968Z,12.82
2023-01-04T02:42:06.949Z,15.43
2023-01-04T02:45:01.198Z,8.02
2023-01-04T02:48:05.973Z,7.72
2023-01-04T02:50:54.316Z,8.75
2023-01-04T02:53:41.124Z,10.85
2023-01-04T02:56:40.028Z,4.53
2023-01-04T02:59:41.727Z,8.15
2023-01-04T03:03:10.500Z,8.10
2023-01-04T03:06:15.706Z,10.88
2023-01-04T03:09:15.147Z,10.18
2023-01-04T03:12:28.756Z,6.28
2023-01-04T03:15:22.036Z,7.93
2023-01-04T03:18:21.685Z,7.97
2023-01-04T03:21:09.914Z,6.80
2023-01-04T03:24:16.281Z,12.55
2023-01-04T03:27:28.892Z,6.97
2023-01-04T03:30:35.362Z,9.98
2023-01-04T03:33:40.941Z,6.38
2023-01-04T03:36:32.415Z,5.95
2023-01-04T03:39:57.423Z,8.98
2023-01-04T03:43:15.781Z,6.95
2023-01-04T03:46:49.958Z,7.20
2023-01-04T03:49:39.153Z,5.95
2023-01-04T03:52:29.033Z,6.50
2023-01-04T03:55:16.643Z,5.10
2023-01-04T03:58:02.204Z,5.93
2023-01-04T04:00:47.950Z,9.77
2023-01-04T04:03:51.815Z,6.72
2023-01-04T04:06:55.431Z,4.93
2023-01-04T04:09:43.758Z,7.57
2023-01-04T04:12:29.941Z,4.97
2023-01-04T04:15:15.789Z,7.05
2023-01-04T04:18:01.137Z,9.25
2023-01-04T04:20:49.280Z,6.05
2023-01-04T04:23:35.008Z,7.30
2023-01-04T04:26:20.346Z,7.93
2023-01-04T04:29:05.875Z,5.53
2023-01-04T04:31:51.950Z,3.85
2023-01-04T04:34:37.623Z,7.50
2023-01-04T04:37:23.145Z,6.82
2023-01-04T04:40:29.056Z,5.15
2023-01-04T04:43:17.626Z,6.80
2023-01-04T04:46:03.491Z,8.10
2023-01-04T04:48:48.805Z,8.30
2023-01-04T04:51:34.908Z,7.63
2023-01-04T04:54:21.863Z,5.60
2023-01-04T04:57:07.144Z,9.57
2023-01-04T04:59:52.664Z,7.32
2023-01-04T05:02:38.612Z,10.52
2023-01-04T05:05:24.177Z,7.78
2023-01-04T05:08:10.076Z,7.20
2023-01-04T05:10:55.404Z,6.28
2023-01-04T05:13:41.453Z,6.85
2023-01-04T05:16:29.805Z,13.27
2023-01-04T05:19:15.524Z,16.05
2023-01-04T05:22:00.966Z,9.20
2023-01-04T05:24:46.543Z,12.90
2023-01-04T05:27:32.000Z,7.45
2023-01-04T05:30:44.287Z,11.90
2023-01-04T05:33:31.749Z,6.95
2023-01-04T05:36:17.144Z,8.23
2023-01-04T05:39:02.599Z,8.15
2023-01-04T05:42:06.309Z,8.63
2023-01-04T05:44:52.894Z,7.32
2023-01-04T05:47:38.303Z,9.50
2023-01-04T05:50:24.931Z,8.63
2023-01-04T05:53:12.562Z,9.27
2023-01-04T05:56:07.625Z,9.55
2023-01-04T05:58:55.857Z,5.88
2023-01-04T06:01:41.140Z,7.55
2023-01-04T06:04:26.698Z,7.85
2023-01-04T06:07:12.290Z,12.57
2023-01-04T06:10:01.212Z,13.38
2023-01-04T06:12:47.695Z,8.68
2023-01-04T06:15:36.603Z,11.18
2023-01-04T06:18:25.204Z,17.77
2023-01-04T06:21:10.793Z,9.75
2023-01-04T06:23:56.277Z,19.88
2023-01-04T06:26:41.526Z,16.40
2023-01-04T06:29:27.059Z,12.95
2023-01-04T06:32:15.657Z,9.25
2023-01-04T06:35:01.339Z,13.70
2023-01-04T06:37:48.926Z,14.65
2023-01-04T06:40:34.614Z,16.48
2023-01-04T06:43:23.133Z,13.95
2023-01-04T06:46:08.596Z,13.77
2023-01-04T06:48:54.185Z,13.38
2023-01-04T06:51:42.437Z,12.63
2023-01-04T06:54:27.685Z,15.02
2023-01-04T06:57:13.385Z,19.77
2023-01-04T06:59:59.000Z,13.93
2023-01-04T07:03:13.728Z,15.27
2023-01-04T07:05:49.964Z,15.48
2023-01-04T07:08:35.935Z,15.65
2023-01-04T07:11:21.679Z,14.07
2023-01-04T07:14:06.906Z,21.80
2023-01-04T07:16:52.499Z,18.35
2023-01-04T07:19:37.933Z,14.98
2023-01-04T07:22:23.454Z,19.15
2023-01-04T07:25:09.490Z,21.58
2023-01-04T07:27:57.649Z,20.98
2023-01-04T07:30:42.980Z,37.40
2023-01-04T07:33:29.455Z,25.50
2023-01-04T07:36:15.121Z,26.45
2023-01-04T07:39:03.691Z,17.17
2023-01-04T07:41:50.470Z,15.90
2023-01-04T07:44:38.911Z,14.35
2023-01-04T07:47:24.627Z,24.65
2023-01-04T07:50:10.236Z,12.43
2023-01-04T07:52:55.756Z,15.80
2023-01-04T07:55:41.468Z,10.95
2023-01-04T07:58:31.210Z,21.67
2023-01-04T08:01:19.179Z,9.40
2023-01-04T08:04:06.696Z,9.75
2023-01-04T08:06:52.280Z,10.90
2023-01-04T08:09:37.633Z,13.10
2023-01-04T08:12:23.339Z,6.10
2023-01-04T08:15:08.995Z,9.25
2023-01-04T08:17:56.324Z,11.32
2023-01-04T08:20:45.147Z,8.20
2023-01-04T08:23:30.560Z,11.82
2023-01-04T08:26:16.987Z,15.93
2023-01-04T08:29:03.158Z,10.98
2023-01-04T08:31:48.538Z,15.73
2023-01-04T08:34:36.912Z,9.05
2023-01-04T08:37:22.601Z,13.30
2023-01-04T08:40:11.401Z,13.75
2023-01-04T08:42:56.735Z,13.05
2023-01-04T08:45:42.643Z,16.15
2023-01-04T08:48:28.076Z,11.70
2023-01-04T08:51:16.269Z,27.80
2023-01-04T08:54:01.486Z,16.23
2023-01-04T08:56:47.001Z,12.48
2023-01-04T08:59:32.656Z,16.33
2023-01-04T09:02:25.422Z,19.35
2023-01-04T09:05:10.806Z,19.92
2023-01-04T09:08:08.534Z,19.42
2023-01-04T09:10:53.773Z,18.95
2023-01-04T09:13:43.192Z,27.83
2023-01-04T09:16:28.626Z,15.68
2023-01-04T09:19:19.698Z,24.85
2023-01-04T09:22:07.175Z,23.85
2023-01-04T09:24:54.023Z,18.30
2023-01-04T09:27:39.955Z,19.52
2023-01-04T09:30:28.021Z,16.42
2023-01-04T09:33:13.957Z,33.25
2023-01-04T09:36:07.079Z,29.67
2023-01-04T09:38:57.190Z,23.17
2023-01-04T09:42:05.673Z,19.35
2023-01-04T09:45:22.995Z,18.50
2023-01-04T09:48:10.961Z,29.83
2023-01-04T09:51:00.882Z,14.23
2023-01-04T09:54:02.343Z,26.50
2023-01-04T09:56:52.920Z,23.40
2023-01-04T09:59:42.207Z,24.77
2023-01-04T10:02:42.794Z,26.08
2023-01-04T10:05:31.411Z,30.45
2023-01-04T10:08:19.859Z,28.05
2023-01-04T10:11:31.593Z,31.30
2023-01-04T10:14:20.046Z,31.63
2023-01-04T10:17:30.367Z,23.48
2023-01-04T10:21:31.568Z,26.73
2023-01-04T10:24:35.095Z,16.98
2023-01-04T10:28:01.165Z,21.15
2023-01-04T10:31:39.741Z,18.15
2023-01-04T10:34:31.928Z,26.23
2023-01-04T10:37:35.107Z,22.98
2023-01-04T10:40:20.830Z,23.88
2023-01-04T10:43:29.727Z,12.00
2023-01-04T10:46:25.012Z,18.20
2023-01-04T10:49:34.067Z,13.23
2023-01-04T10:52:32.018Z,11.70
2023-01-04T10:55:27.362Z,21.95
2023-01-04T10:58:24.145Z,13.55
2023-01-04T11:01:16.606Z,12.20
2023-01-04T11:04:21.278Z,12.48
2023-01-04T11:07:18.072Z,13.30
2023-01-04T11:10:09.154Z,12.73
2023-01-04T11:12:54.872Z,12.40
2023-01-04T11:15:42.657Z,13.43
2023-01-04T11:18:28.991Z,11.68
2023-01-04T11:21:16.008Z,10.57
2023-01-04T11:24:30.309Z,8.75
2023-01-04T11:27:25.072Z,9.18
2023-01-04T11:33:25.508Z,12.27
2023-01-04T11:36:33.088Z,17.67
2023-01-04T11:39:23.040Z,9.77
2023-01-04T11:42:21.508Z,17.60
2023-01-04T11:45:19.066Z,17.80
2023-01-04T11:48:15.423Z,13.45
2023-01-04T11:51:01.964Z,26.15
2023-01-04T11:54:16.022Z,17.00
2023-01-04T11:57:11.605Z,14.43
2023-01-04T12:00:14.159Z,17.60
2023-01-04T12:03:15.358Z,15.85
2023-01-04T12:06:00.626Z,10.95
2023-01-04T12:08:46.612Z,18.50
2023-01-04T12:11:37.117Z,21.45
2023-01-04T12:14:36.040Z,21.10
2023-01-04T12:17:48.811Z,15.60
2023-01-04T12:20:35.886Z,20.50
2023-01-04T12:23:21.506Z,20.02
2023-01-04T12:26:08.894Z,21.15
2023-01-04T12:29:29.154Z,16.35
2023-01-04T12:32:17.463Z,18.10
2023-01-04T12:35:03.725Z,16.48
2023-01-04T12:37:49.577Z,23.55
2023-01-04T12:40:47.966Z,16.40
2023-01-04T12:43:46.565Z,19.23
2023-01-04T12:46:52.971Z,19.33
2023-01-04T12:50:00.196Z,12.30
2023-01-04T12:53:28.261Z,16.98
2023-01-04T12:55:55.056Z,20.75
2023-01-04T12:59:15.272Z,18.65
2023-01-04T13:02:18.503Z,16.65
2023-01-04T13:08:21.961Z,24.42
2023-01-04T13:11:42.757Z,25.90
2023-01-04T13:15:05.811Z,26.75
2023-01-04T13:17:50.981Z,15.55
2023-01-04T13:20:38.467Z,20.25
2023-01-04T13:23:26.599Z,34.63
2023-01-04T13:26:43.162Z,17.75
2023-01-04T13:32:33.434Z,20.92
2023-01-04T13:35:21.281Z,16.40
2023-01-04T13:38:14.169Z,19.52
2023-01-04T13:40:59.925Z,19.20
2023-01-04T13:44:07.275Z,17.80
2023-01-04T13:46:58.023Z,19.33
2023-01-04T13:49:43.537Z,18.15
2023-01-04T13:52:53.040Z,18.17
2023-01-04T13:55:41.218Z,20.40
2023-01-04T13:58:33.028Z,21.00
2023-01-04T14:01:50.704Z,17.23
2023-01-04T14:04:36.728Z,20.50
2023-01-04T14:07:23.707Z,17.33
2023-01-04T14:10:17.614Z,21.33
2023-01-04T14:13:17.402Z,15.35
2023-01-04T14:16:13.202Z,20.42
2023-01-04T14:18:58.353Z,21.45
2023-01-04T14:21:46.993Z,18.23
2023-01-04T14:27:42.659Z,19.83
2023-01-04T14:30:28.075Z,21.75
2023-01-04T14:33:36.111Z,26.98
2023-01-04T14:36:26.796Z,18.67
2023-01-04T14:39:24.052Z,24.33
2023-01-04T14:42:35.737Z,28.30
2023-01-04T14:45:21.476Z,19.38
2023-01-04T14:48:08.370Z,26.15
2023-01-04T14:50:53.926Z,24.70
2023-01-04T14:53:43.506Z,34.53
2023-01-04T14:56:28.871Z,31.92
2023-01-04T14:59:14.332Z,28.95
2023-01-04T15:02:02.762Z,37.20
2023-01-04T15:04:48.560Z,24.02
2023-01-04T15:07:42.348Z,36.35
2023-01-04T15:10:29.905Z,32.35
2023-01-04T15:13:19.448Z,34.58
2023-01-04T15:16:05.433Z,32.88
2023-01-04T15:18:56.345Z,36.55
2023-01-04T15:21:41.990Z,32.53
2023-01-04T15:24:27.367Z,41.35
2023-01-04T15:27:15.439Z,37.08
2023-01-04T15:30:00.697Z,29.48
2023-01-04T15:32:46.435Z,32.00
2023-01-04T15:35:32.111Z,37.97
2023-01-04T15:38:18.372Z,25.67
2023-01-04T15:41:32.439Z,32.88
2023-01-04T15:44:21.871Z,33.13
2023-01-04T15:47:07.831Z,39.25
2023-01-04T15:49:53.181Z,32.78
2023-01-04T15:52:38.713Z,26.58
2023-01-04T15:55:24.202Z,34.90
2023-01-04T15:58:09.739Z,38.08
2023-01-04T16:00:59.812Z,28.02
2023-01-04T16:03:53.899Z,38.70
2023-01-04T16:06:43.442Z,35.28
2023-01-04T16:09:28.952Z,31.98
2023-01-04T16:12:33.306Z,38.05
2023-01-04T16:15:20.930Z,44.25
2023-01-04T16:18:06.965Z,41.53
2023-01-04T16:20:52.308Z,42.63
2023-01-04T16:23:38.388Z,28.13
2023-01-04T16:26:24.153Z,37.90
2023-01-04T16:29:14.811Z,35.40
2023-01-04T16:32:02.729Z,31.83
2023-01-04T16:34:50.603Z,40.08
2023-01-04T16:37:36.599Z,34.67
2023-01-04T16:40:27.511Z,38.83
2023-01-04T16:43:12.969Z,38.70
2023-01-04T16:46:16.977Z,39.20
2023-01-04T16:49:04.596Z,39.45
2023-01-04T16:51:55.324Z,41.92
2023-01-04T16:54:43.401Z,31.75
2023-01-04T16:57:29.534Z,34.33
2023-01-04T17:00:17.588Z,39.75
2023-01-04T17:03:06.379Z,35.30
2023-01-04T17:05:51.599Z,38.22
2023-01-04T17:08:37.422Z,41.33
2023-01-04T17:14:34.611Z,44.10
2023-01-04T17:17:20.189Z,42.47
2023-01-04T17:20:06.610Z,52.22
2023-01-04T17:22:51.903Z,33.45
2023-01-04T17:25:37.324Z,40.58
2023-01-04T17:28:25.128Z,46.35
2023-01-04T17:31:33.739Z,46.58
2023-01-04T17:34:22.979Z,59.97
2023-01-04T17:37:08.709Z,47.50
2023-01-04T17:39:54.803Z,47.22
2023-01-04T17:42:44.977Z,48.10
2023-01-04T17:45:30.439Z,52.85
2023-01-04T17:48:22.057Z,52.90
2023-01-04T17:51:13.612Z,59.80
2023-01-04T17:54:02.161Z,47.33
2023-01-04T17:56:47.393Z,51.72
2023-01-04T17:59:34.902Z,56.03
2023-01-04T18:02:20.422Z,56.92
2023-01-04T18:05:06.130Z,50.90
2023-01-04T18:07:51.638Z,58.63
2023-01-04T18:10:57.217Z,56.13
2023-01-04T18:13:45.621Z,55.22
2023-01-04T18:16:31.578Z,57.97
2023-01-04T18:19:21.085Z,56.78
2023-01-04T18:22:06.935Z,61.55
2023-01-04T18:24:52.654Z,47.15
2023-01-04T18:27:38.066Z,62.38
2023-01-04T18:30:24.059Z,53.08
2023-01-04T18:33:09.343Z,51.75
2023-01-04T18:35:54.945Z,61.92
2023-01-04T18:38:40.696Z,45.47
2023-01-04T18:41:30.375Z,59.33
2023-01-04T18:44:32.604Z,58.70
2023-01-04T18:47:21.234Z,60.58
2023-01-04T18:50:06.835Z,56.92
2023-01-04T18:52:52.460Z,48.80
2023-01-04T18:55:39.356Z,55.90
2023-01-04T18:58:24.384Z,52.83
2023-01-04T19:01:12.008Z,49.50
2023-01-04T19:04:02.243Z,47.33
2023-01-04T19:06:47.923Z,61.10
2023-01-04T19:09:33.566Z,52.65
2023-01-04T19:12:19.757Z,54.80
2023-01-04T19:15:06.581Z,56.58
2023-01-04T19:17:54.475Z,47.92
2023-01-04T19:20:43.114Z,51.35
2023-01-04T19:23:28.685Z,56.92
2023-01-04T19:26:14.009Z,52.08
2023-01-04T19:28:59.380Z,48.33
2023-01-04T19:31:45.168Z,39.90
2023-01-04T19:34:33.506Z,48.10
2023-01-04T19:37:19.096Z,59.17
2023-01-04T19:40:08.063Z,44.05
2023-01-04T19:43:16.678Z,48.92
2023-01-04T19:46:02.215Z,54.72
2023-01-04T19:48:47.899Z,46.72
2023-01-04T19:51:41.893Z,43.95
2023-01-04T19:54:27.562Z,49.40
2023-01-04T19:57:13.066Z,54.15
2023-01-04T19:59:58.632Z,49.80
2023-01-04T20:02:44.047Z,40.58
2023-01-04T20:05:29.737Z,41.85
2023-01-04T20:08:15.478Z,44.83
2023-01-04T20:11:10.107Z,44.63
2023-01-04T20:13:57.900Z,47.20
2023-01-04T20:16:43.491Z,44.45
2023-01-04T20:19:28.896Z,40.85
2023-01-04T20:22:14.315Z,45.17
2023-01-04T20:25:01.194Z,41.15
2023-01-04T20:27:50.002Z,45.20
2023-01-04T20:30:36.027Z,38.53
2023-01-04T20:33:24.862Z,51.58
2023-01-04T20:36:19.077Z,40.65
2023-01-04T20:39:07.622Z,44.58
2023-01-04T20:42:11.883Z,35.90
2023-01-04T20:44:57.684Z,46.50
2023-01-04T20:47:43.349Z,40.78
2023-01-04T20:50:31.016Z,48.28
2023-01-04T20:53:20.981Z,51.08
2023-01-04T20:56:09.090Z,44.20
2023-01-04T20:58:55.707Z,43.83
2023-01-04T21:01:41.363Z,47.47
2023-01-04T21:04:27.625Z,41.47
2023-01-04T21:07:13.390Z,53.05
2023-01-04T21:09:58.980Z,49.08
2023-01-04T21:12:44.680Z,54.10
2023-01-04T21:15:29.942Z,45.55
2023-01-04T21:18:19.627Z,53.70
2023-01-04T21:21:13.692Z,42.08
2023-01-04T21:23:58.924Z,63.63
2023-01-04T21:26:44.445Z,55.90
2023-01-04T21:29:30.804Z,53.45
2023-01-04T21:32:18.332Z,52.70
2023-01-04T21:35:04.200Z,56.92
2023-01-04T21:37:49.726Z,46.20
2023-01-04T21:40:37.968Z,46.33
2023-01-04T21:43:23.327Z,42.20
2023-01-04T21:46:15.288Z,50.78
2023-01-04T21:49:01.927Z,46.65
2023-01-04T21:51:47.455Z,51.85
2023-01-04T21:54:33.096Z,47.22
2023-01-04T21:57:18.652Z,42.67
2023-01-04T22:00:24.683Z,43.28
2023-01-04T22:06:02.400Z,41.70
2023-01-04T22:08:48.304Z,56.17
2023-01-04T22:11:33.806Z,45.60
2023-01-04T22:14:19.636Z,45.30
2023-01-04T22:17:07.171Z,40.83
2023-01-04T22:19:53.093Z,49.78
2023-01-04T22:22:41.845Z,48.47
2023-01-04T22:25:27.846Z,42.80
2023-01-04T22:28:18.586Z,45.30
2023-01-04T22:31:12.868Z,41.55
2023-01-04T22:33:58.377Z,42.97
2023-01-04T22:36:44.185Z,45.38
2023-01-04T22:39:29.803Z,62.20
2023-01-04T22:42:15.273Z,45.83
2023-01-04T22:45:00.886Z,43.25
2023-01-04T22:47:46.521Z,45.88
2023-01-04T22:50:32.381Z,60.65
2023-01-04T22:53:17.967Z,50.70
2023-01-04T22:56:22.019Z,50.05
2023-01-04T22:59:09.731Z,46.23
2023-01-04T23:01:56.284Z,47.65
2023-01-04T23:04:44.531Z,45.78
2023-01-04T23:07:30.137Z,52.17
2023-01-04T23:10:15.673Z,51.33
2023-01-04T23:13:01.280Z,45.03
2023-01-04T23:15:46.577Z,40.90
2023-01-04T23:18:37.936Z,39.70
2023-01-04T23:21:23.506Z,46.05
2023-01-04T23:24:16.830Z,54.72
2023-01-04T23:27:02.195Z,54.13
2023-01-04T23:29:47.698Z,61.55
2023-01-04T23:32:35.593Z,42.00
2023-01-04T23:35:21.232Z,57.75
2023-01-04T23:38:09.816Z,50.78
2023-01-04T23:40:55.275Z,49.10
2023-01-04T23:43:40.862Z,42.20
2023-01-04T23:46:30.601Z,51.63
2023-01-04T23:49:16.058Z,63.15
2023-01-04T23:52:03.092Z,51.65
2023-01-04T23:54:49.196Z,43.67
2023-01-04T23:57:37.901Z,47.10
